Saturday, November 18, 2017, 1:30 AM EST
Back to Local

KBUF, Greater Buffalo International Airport

Location: Buffalo, NY, United States Lat: 42.933
Local Time: 1:30 AM EST ( 6:30 GMT) Lon: -78.733
Time Zone: US/Eastern Elev: 725 ft

Show me the last for .
Show Decoded

2017-11-18 00:54 METAR KBUF 180554Z 13003KT 10SM FEW100 SCT140 BKN170 OVC240 01/M03 A2982 RMK AO2
                 SLP106 T00111033 10017 20006 58040 =
2017-11-17 23:54 METAR KBUF 180454Z 13005KT 10SM FEW110 BKN140 BKN240 01/M03 A2988 RMK AO2 SLP124
                 T00111028 400221011 =
2017-11-17 22:54 METAR KBUF 180354Z 13005KT 10SM FEW120 BKN140 BKN250 01/M03 A2991 RMK AO2 SLP137
                 T00061033 =
2017-11-17 21:54 METAR KBUF 180254Z 12007KT 10SM SCT120 BKN150 BKN250 01/M03 A2994 RMK AO2 SLP147
                 T00111028 58033 =
2017-11-17 20:54 METAR KBUF 180154Z 12006KT 10SM FEW100 SCT140 SCT280 01/M03 A2997 RMK AO2 SLP158
                 T00111033 =
2017-11-17 19:54 METAR KBUF 180054Z 12007KT 10SM BKN140 01/M03 A3001 RMK AO2 SLP170 T00111033 =
2017-11-17 18:54 METAR KBUF 172354Z 09006KT 10SM OVC140 02/M03 A3004 RMK AO2 SLP181 T00171033
                 10022 20006 58025 =
2017-11-17 17:54 METAR KBUF 172254Z 10003KT 10SM BKN120 BKN150 02/M03 A3008 RMK AO2 SLP193
                 T00171033 =
2017-11-17 16:54 METAR KBUF 172154Z 10004KT 10SM BKN120 BKN150 02/M03 A3010 RMK AO2 SLP201
                 T00171033 =
2017-11-17 15:54 METAR KBUF 172054Z 18004KT 10SM FEW024 FEW110 FEW160 FEW210 FEW260 02/M02 A3011
                 RMK AO2 SLP206 T00221022 58030 =
2017-11-17 14:54 METAR KBUF 171954Z 25003KT 10SM FEW026 FEW110 FEW160 FEW210 SCT260 02/M03 A3015
                 RMK AO2 SLP219 T00171033 =
2017-11-17 13:54 METAR KBUF 171854Z COR 24006KT 10SM FEW024 FEW160 FEW220 BKN260 01/M04 A3018 RMK
                 AO2 SLP230 T00061044 =
2017-11-17 12:54 METAR KBUF 171754Z 24008KT 10SM SCT024 SCT170 BKN220 BKN270 01/M05 A3020 RMK AO2
                 SLP237 T00061050 10017 21011 56015 =
2017-11-17 12:52 METAR KBUF 171752Z 22007KT 10SM SCT024 SCT170 BKN220 BKN270 01/M05 A3021 RMK AO2
                 =
2017-11-17 11:54 METAR KBUF 171654Z 28004KT 10SM BKN023 BKN250 00/M05 A3022 RMK AO2 SLP242
                 T00001050 =
2017-11-17 10:54 METAR KBUF 171554Z 30004KT 10SM BKN023 00/M06 A3025 RMK AO2 SLP252 T00001056 =
2017-11-17 09:54 METAR KBUF 171454Z 34006KT 10SM BKN022 M01/M06 A3026 RMK AO2 SLP257 T10061056
                 50009 =
2017-11-17 08:54 METAR KBUF 171354Z 35005KT 10SM BKN021 M01/M06 A3027 RMK AO2 SLP259 T10111056 =
2017-11-17 07:54 METAR KBUF 171254Z 32007KT 10SM OVC022 M01/M06 A3026 RMK AO2 SLP255 T10061056 =
2017-11-17 06:54 METAR KBUF 171154Z 31008KT 10SM OVC024 M01/M06 A3023 RMK AO2 SLP247 60000
                 T10061056 10011 21011 53012 =
2017-11-17 05:54 METAR KBUF 171054Z 33009KT 10SM OVC024 00/M05 A3022 RMK AO2 SLP239 T00001050 =
2017-11-17 04:54 METAR KBUF 170954Z 31009KT 10SM OVC022 00/M04 A3021 RMK AO2 SLP237 SNB09E19
                 P0000 T00001039 =
2017-11-17 03:54 METAR KBUF 170854Z 31010G16KT 10SM UP OVC024 01/M04 A3020 RMK AO2 UPB54 SLP234
                 P0000 60000 T00061039 51021 =
2017-11-17 02:54 METAR KBUF 170754Z 10SM OVC019 01/M03 A3018 RMK AO2 SLP229 T00061033 =
2017-11-17 01:54 METAR KBUF 170654Z 31009KT 10SM OVC021 01/M03 A3016 RMK AO2 SLP221 T00111033 =

Support USWX by starting your Amazon purchase here.